Latest Weather Observations for Edithburgh

IDS60801

Issued at 6:01 pm CDT Tuesday 17 October 2017 (issued every 30 minutes, with the page automatically refreshed every 10 minutes)

About weather observations | Map of weather stations | Latest weather observations for SA | Other Formats
Station Details ID: 022046 Name: EDITHBURGH Lat: -35.11 Lon: 137.74 Height: 6.0 m
Data from the previous 72 hours. | See also: Recent months at Edithburgh
Date/Time
CDT
Temp
°C
App
Temp
°C
Dew
Point
°C
Rel
Hum
%
Delta-T
°C
Wind Press
QNH
hPa
Press
MSL
hPa
Rain since
9am
mm
Dir  Spd
km/h
Gust
km/h
Spd
kts
Gust
kts
17/06:00pm 27.4 26.7 11.3 36 9.2 NNE 6 9 3 5 1013.3 1013.3 0.0
17/05:30pm 26.4 24.2 9.3 34 9.4 NE 11 17 6 9 1013.2 1013.2 0.0
17/05:00pm 27.4 25.5 10.5 34 9.5 NE 11 17 6 9 1013.0 1013.0 0.0
17/04:30pm 27.9 25.3 9.5 31 10.2 NNE 13 19 7 10 1013.1 1013.1 0.0
17/04:00pm 28.2 26.2 10.0 32 10.2 NNE 11 20 6 11 1013.2 1013.2 0.0
17/03:30pm 27.1 25.2 11.8 38 8.8 NNE 13 20 7 11 1013.3 1013.3 0.0
17/03:00pm 26.1 23.9 12.0 41 8.1 NE 15 24 8 13 1013.7 1013.7 0.0
17/02:30pm 26.7 24.2 10.9 37 8.9 NNE 15 26 8 14 1014.0 1014.0 0.0
17/02:00pm 26.6 24.4 12.0 40 8.4 NNE 15 24 8 13 1014.3 1014.3 0.0
17/01:30pm 25.8 23.7 12.5 43 7.7 NNE 15 24 8 13 1014.5 1014.5 0.0
17/01:00pm 25.4 23.5 13.0 46 7.2 NNE 15 24 8 13 1014.8 1014.8 0.0
17/12:30pm 25.3 23.2 13.5 48 6.9 NNE 17 24 9 13 1015.1 1015.1 0.0
17/12:00pm 25.4 23.6 13.2 46 7.1 NNE 15 24 8 13 1015.5 1015.5 0.0
17/11:30am 24.4 22.6 13.4 50 6.4 NNE 15 24 8 13 1015.9 1015.9 0.0
17/11:00am 23.1 20.6 13.6 55 5.5 NNE 19 28 10 15 1015.9 1015.9 0.0
17/10:30am 22.9 20.9 14.0 57 5.2 NNE 17 28 9 15 1015.9 1015.9 0.0
17/10:00am 21.4 19.5 14.2 63 4.2 NNE 17 26 9 14 1015.9 1015.9 0.0
17/09:30am 20.9 19.2 14.8 68 3.6 NE 17 24 9 13 1015.9 1015.9 0.0
17/09:00am 21.1 19.4 13.6 62 4.3 NNE 15 20 8 11 1015.7 1015.7 0.0
17/08:30am 20.5 18.9 12.9 61 4.3 NNE 13 20 7 11 1015.9 1015.9 0.0
17/08:00am 19.9 18.4 13.2 65 3.8 NNE 13 19 7 10 1015.7 1015.7 0.0
17/07:30am 19.1 19.5 19.1 100 0.0 NNE 15 20 8 11 1015.3 1015.3 0.0
17/07:00am 18.3 18.8 18.3 100 0.0 NNE 13 20 7 11 1015.0 1015.0 0.0
17/06:30am 18.1 18.5 18.1 100 0.0 NNE 13 19 7 10 1014.7 1014.7 0.0
17/06:00am 18.4 18.4 18.2 99 0.1 NNE 15 22 8 12 1014.5 1014.5 0.0
17/05:30am 17.4 18.2 17.4 100 0.0 NNE 9 15 5 8 1014.4 1014.4 0.0
17/05:00am 17.9 18.6 17.9 100 0.0 NNE 11 17 6 9 1014.3 1014.3 0.0
17/04:30am 18.0 19.1 18.0 100 0.0 NNE 9 17 5 9 1014.3 1014.3 0.0
17/04:00am 18.3 19.2 18.3 100 0.0 NNE 11 19 6 10 1014.1 1014.1 0.0
17/03:30am 18.5 19.4 18.5 100 0.0 NNE 11 17 6 9 1014.3 1014.3 0.0
17/03:00am 18.9 20.0 18.9 100 0.0 NNE 11 15 6 8 1014.5 1014.5 0.0
17/02:30am 19.5 20.9 19.5 100 0.0 NNE 11 19 6 10 1014.6 1014.6 0.0
17/02:00am 19.2 19.9 18.9 98 0.2 NE 13 19 7 10 1014.7 1014.7 0.0
17/01:30am 20.2 22.2 20.0 99 0.1 NNE 9 17 5 9 1015.4 1015.4 0.0
17/01:00am 19.1 20.3 19.1 100 0.0 ENE 11 15 6 8 1015.7 1015.7 0.0
17/12:30am 18.7 19.7 18.7 100 0.0 ENE 11 15 6 8 1016.0 1016.0 0.0
17/12:00am 19.6 21.8 19.6 100 0.0 ENE 7 9 4 5 1016.4 1016.4 0.0
 
Date/Time
CDT
Temp
°C
App
Temp
°C
Dew
Point
°C
Rel
Hum
%
Delta-T
°C
Wind Press
QNH
hPa
Press
MSL
hPa
Rain since
9am
mm
Dir  Spd
km/h
Gust
km/h
Spd
kts
Gust
kts
16/11:30pm 19.8 21.5 19.3 97 0.3 NE 9 11 5 6 1016.7 1016.7 0.0
16/11:00pm 19.4 21.4 19.2 99 0.1 NE 7 13 4 7 1016.6 1016.6 0.0
16/10:30pm 18.7 20.5 18.7 100 0.0 ENE 7 11 4 6 1016.7 1016.7 0.0
16/10:00pm 18.2 19.4 18.2 100 0.0 SSE 9 11 5 6 1016.6 1016.6 0.0
16/09:30pm 18.9 20.0 18.9 100 0.0 SSE 11 15 6 8 1016.5 1016.5 0.0
16/09:00pm 19.4 20.4 19.4 100 0.0 SSE 13 17 7 9 1016.2 1016.2 0.0
16/08:30pm 19.8 21.0 19.8 100 0.0 S 13 15 7 8 1015.9 1015.9 0.0
16/08:00pm 19.8 21.0 19.8 100 0.0 S 13 17 7 9 1015.8 1015.8 0.0
16/07:30pm 20.8 22.8 20.8 100 0.0 S 11 15 6 8 1015.8 1015.8 0.0
16/07:00pm 22.0 24.3 22.0 100 0.0 SSE 13 17 7 9 1015.7 1015.7 0.0
16/06:30pm 22.5 25.0 22.5 100 0.0 SSE 13 17 7 9 1015.8 1015.8 0.0
16/06:00pm 22.9 25.3 22.9 100 0.0 SE 15 19 8 10 1015.8 1015.8 0.0
16/05:30pm 23.2 25.7 23.2 100 0.0 SE 15 20 8 11 1015.8 1015.8 0.0
16/05:00pm 23.4 25.7 23.4 100 0.0 SE 17 20 9 11 1015.8 1015.8 0.0
16/04:30pm 24.5 27.7 24.4 99 0.1 SE 15 20 8 11 1016.0 1016.0 0.0
16/04:00pm 23.0 25.0 22.9 99 0.1 SE 17 22 9 12 1016.1 1016.1 0.0
16/03:30pm 23.4 26.4 23.4 100 0.0 SE 13 17 7 9 1016.5 1016.5 0.0
16/03:00pm 22.9 25.3 22.9 100 0.0 SE 15 17 8 9 1016.7 1016.7 0.0
16/02:30pm 23.4 26.8 23.4 100 0.0 SE 11 15 6 8 1017.2 1017.2 0.0
16/02:00pm 25.5 30.6 25.5 100 0.0 ENE 9 15 5 8 1017.6 1017.6 0.0
16/01:30pm 24.5 28.6 24.5 100 0.0 ENE 11 13 6 7 1018.0 1018.0 0.0
16/01:00pm 23.2 26.5 23.2 100 0.0 ENE 11 15 6 8 1018.3 1018.3 0.0
16/12:30pm 22.6 25.6 22.6 100 0.0 NE 11 17 6 9 1018.7 1018.7 0.0
16/12:00pm 21.9 24.1 21.9 100 0.0 ENE 13 17 7 9 1019.0 1019.0 0.0
16/11:30am 21.5 23.5 21.5 100 0.0 ENE 13 17 7 9 1019.3 1019.3 0.0
16/11:00am 21.6 24.0 21.6 100 0.0 ENE 11 15 6 8 1019.7 1019.7 0.0
16/10:30am 21.3 24.0 21.3 100 0.0 NE 9 13 5 7 1020.1 1020.0 0.0
16/10:00am 20.4 22.6 20.4 100 0.0 ENE 9 11 5 6 1020.2 1020.1 0.0
16/09:30am 20.3 22.8 20.3 100 0.0 ENE 7 9 4 5 1020.3 1020.2 0.0
16/09:00am 19.4 21.4 19.2 99 0.1 ENE 7 9 4 5 1020.4 1020.3 0.0
16/08:30am 18.6 20.0 17.9 96 0.4 E 7 7 4 4 1020.3 1020.2 0.0
16/08:00am 16.5 18.7 16.5 100 0.0 CALM 0 0 0 0 1020.2 1020.1 0.0
16/07:30am 14.4 15.1 14.4 100 0.0 S 4 6 2 3 1020.2 1020.1 0.0
16/07:00am 12.9 12.5 12.9 100 0.0 S 7 9 4 5 1020.0 1019.9 0.0
16/06:30am 13.2 12.9 13.2 100 0.0 S 7 7 4 4 1019.6 1019.6 0.0
16/06:00am 12.9 12.5 12.9 100 0.0 SSE 7 7 4 4 1019.3 1019.3 0.0
16/05:30am 13.6 13.6 13.6 100 0.0 SSE 6 7 3 4 1019.1 1019.1 0.0
16/05:00am 13.0 12.2 13.0 100 0.0 SSE 9 11 5 6 1018.9 1018.9 0.0
16/04:30am 13.4 13.1 13.4 100 0.0 SE 7 9 4 5 1019.0 1019.0 0.0
16/04:00am 14.0 13.9 14.0 100 0.0 SE 7 9 4 5 1019.2 1019.2 0.0
16/03:30am 14.4 14.1 14.4 100 0.0 SE 9 13 5 7 1019.4 1019.4 0.0
16/03:00am 14.5 13.9 14.5 100 0.0 SE 11 15 6 8 1019.7 1019.7 0.0
16/02:30am 14.7 13.7 14.7 100 0.0 SE 13 17 7 9 1020.3 1020.2 0.0
16/02:00am 14.8 13.9 14.8 100 0.0 SE 13 17 7 9 1020.7 1020.6 0.0
16/01:30am 14.7 13.4 14.7 100 0.0 SE 15 22 8 12 1020.9 1020.8 0.0
16/01:00am 14.5 13.5 14.5 100 0.0 SSE 13 15 7 8 1021.2 1021.1 0.0
16/12:30am 14.9 13.5 14.5 97 0.2 SSE 15 20 8 11 1021.3 1021.2 0.0
16/12:00am 14.9 12.9 14.0 94 0.5 SSE 17 24 9 13 1021.4 1021.3 0.0
 
Date/Time
CDT
Temp
°C
App
Temp
°C
Dew
Point
°C
Rel
Hum
%
Delta-T
°C
Wind Press
QNH
hPa
Press
MSL
hPa
Rain since
9am
mm
Dir  Spd
km/h
Gust
km/h
Spd
kts
Gust
kts
15/11:30pm 14.6 12.9 13.5 93 0.6 SSE 15 19 8 10 1021.7 1021.6 0.0
15/11:00pm 14.6 13.1 13.0 90 0.9 SSE 13 17 7 9 1021.8 1021.7 0.0
15/10:30pm 14.5 12.8 12.5 88 1.1 SE 13 17 7 9 1021.8 1021.7 0.0
15/10:00pm 14.8 12.6 12.0 83 1.5 SE 15 20 8 11 1021.6 1021.5 0.0
15/09:30pm 14.9 11.5 11.3 79 1.9 SE 20 32 11 17 1021.4 1021.3 0.0
15/09:00pm 15.2 11.2 10.4 73 2.5 SE 22 30 12 16 1021.2 1021.1 0.0
15/08:30pm 14.9 12.1 11.5 80 1.8 SE 17 26 9 14 1021.0 1020.9 0.0
15/08:00pm 15.4 12.3 11.5 77 2.1 SE 19 26 10 14 1020.8 1020.7 0.0
15/07:30pm 15.5 12.2 11.6 77 2.1 SE 20 28 11 15 1020.8 1020.7 0.0
15/07:00pm 15.8 13.0 13.1 84 1.5 SSE 20 28 11 15 1020.8 1020.7 0.0
15/06:30pm 16.2 13.3 12.9 81 1.8 SSE 20 28 11 15 1020.7 1020.6 0.0
15/06:00pm 16.4 12.7 12.8 79 2.0 SSE 24 33 13 18 1020.8 1020.7 0.0
15/05:30pm 16.8 13.2 13.0 78 2.1 SSE 24 33 13 18 1020.9 1020.8 0.0
15/05:00pm 17.4 14.2 13.1 76 2.4 SSE 22 32 12 17 1020.8 1020.7 0.0
15/04:30pm 17.7 14.1 13.2 75 2.5 SSE 24 32 13 17 1020.8 1020.7 0.0
15/04:00pm 18.0 14.8 13.2 73 2.7 SSE 22 30 12 16 1021.0 1020.9 0.0
15/03:30pm 18.1 15.3 13.1 72 2.8 SSE 20 26 11 14 1021.3 1021.2 0.0
15/03:00pm 18.1 15.2 12.9 71 2.9 SSE 20 24 11 13 1021.8 1021.7 0.0
15/02:30pm 18.4 15.6 13.1 71 3.0 SSE 20 28 11 15 1022.1 1022.0 0.0
15/02:00pm 18.1 15.1 12.5 70 3.1 SSE 20 28 11 15 1022.3 1022.2 0.0
15/01:30pm 18.3 15.2 11.7 65 3.6 SSE 19 22 10 12 1022.4 1022.3 0.0
15/01:00pm 18.1 16.0 12.3 69 3.2 SE 15 19 8 10 1022.6 1022.5 0.0
15/12:30pm 18.1 15.8 11.7 66 3.5 SE 15 19 8 10 1022.9 1022.8 0.0
15/12:00pm 18.5 16.6 11.7 64 3.7 ESE 13 19 7 10 1023.0 1022.9 0.0
15/11:30am 17.6 14.8 11.5 67 3.3 ESE 17 20 9 11 1023.2 1023.1 0.0
15/11:00am 17.2 14.8 11.5 69 3.1 ESE 15 19 8 10 1023.6 1023.5 0.0
15/10:30am 16.6 14.3 11.6 72 2.7 ESE 15 20 8 11 1023.7 1023.6 0.0
15/10:00am 16.2 13.5 11.8 75 2.4 SE 17 20 9 11 1023.7 1023.6 0.0
15/09:30am 15.8 13.4 11.5 75 2.3 SE 15 20 8 11 1023.9 1023.8 0.0
15/09:00am 15.6 12.5 11.5 76 2.2 ESE 19 24 10 13 1023.9 1023.8 0.0
15/08:30am 15.2 12.2 11.9 81 1.8 SE 19 24 10 13 1023.7 1023.6 0.0
15/08:00am 14.8 11.5 11.6 81 1.7 SE 20 26 11 14 1023.5 1023.4 0.0
15/07:30am 14.1 11.0 11.7 85 1.3 SE 19 24 10 13 1023.4 1023.3 0.0
15/07:00am 13.7 11.0 11.8 88 1.0 SE 17 22 9 12 1023.1 1023.0 0.0
15/06:30am 13.4 11.0 11.5 88 1.0 SE 15 20 8 11 1023.0 1022.9 0.0
15/06:00am 13.3 10.5 11.4 88 1.0 ESE 17 20 9 11 1022.7 1022.6 0.0
15/05:30am 13.5 11.5 11.6 88 1.0 ESE 13 19 7 10 1022.6 1022.5 0.0
15/05:00am 13.7 12.2 11.8 88 1.0 ESE 11 15 6 8 1022.9 1022.8 0.0
15/04:30am 13.9 11.9 11.6 86 1.2 ESE 13 17 7 9 1023.0 1022.9 0.0
15/04:00am 13.9 11.6 11.6 86 1.2 ESE 15 20 8 11 1022.9 1022.8 0.0
15/03:30am 14.0 11.3 11.6 85 1.3 ESE 17 26 9 14 1022.9 1022.8 0.0
15/03:00am 13.7 11.0 11.6 87 1.1 ESE 17 24 9 13 1023.1 1023.0 0.0
15/02:30am 13.7 10.6 11.6 87 1.1 SE 19 26 10 14 1023.2 1023.1 0.0
15/02:00am 13.6 10.2 11.3 86 1.2 SE 20 26 11 14 1023.4 1023.3 0.0
15/01:30am 13.6 9.8 11.1 85 1.3 SE 22 28 12 15 1023.6 1023.5 0.0
15/01:00am 13.6 10.2 11.1 85 1.3 SE 20 28 11 15 1023.8 1023.7 0.0
15/12:30am 13.7 9.8 10.8 83 1.5 SE 22 30 12 16 1023.9 1023.8 0.0
15/12:00am 13.8 9.1 10.5 80 1.7 SE 26 33 14 18 1023.7 1023.6 0.0
 
Date/Time
CDT
Temp
°C
App
Temp
°C
Dew
Point
°C
Rel
Hum
%
Delta-T
°C
Wind Press
QNH
hPa
Press
MSL
hPa
Rain since
9am
mm
Dir  Spd
km/h
Gust
km/h
Spd
kts
Gust
kts
14/11:30pm 13.8 9.9 10.9 83 1.5 SE 22 30 12 16 1023.9 1023.8 0.0
14/11:00pm 13.7 10.2 11.0 84 1.4 SE 20 30 11 16 1024.1 1024.0 0.0
14/10:30pm 13.8 10.2 10.7 81 1.6 SE 20 28 11 15 1024.2 1024.1 0.0
14/10:00pm 13.8 10.2 10.7 81 1.6 SE 20 26 11 14 1024.2 1024.1 0.0
14/09:30pm 14.0 10.5 11.0 82 1.6 SE 20 26 11 14 1024.0 1023.9 0.0
14/09:00pm 14.3 10.6 11.5 83 1.5 SE 22 32 12 17 1023.8 1023.7 0.0
14/08:30pm 14.2 10.4 11.2 82 1.6 SSE 22 35 12 19 1023.7 1023.6 0.0
14/08:00pm 14.3 10.2 11.5 83 1.5 SSE 24 33 13 18 1023.6 1023.5 0.0
14/07:30pm 14.5 10.4 11.5 82 1.6 SSE 24 33 13 18 1023.6 1023.5 0.0
14/07:00pm 15.0 10.9 11.6 80 1.8 SSE 24 32 13 17 1023.6 1023.5 0.0
14/06:30pm 15.7 12.0 11.6 76 2.2 SSE 22 30 12 16 1023.4 1023.3 0.0

Other Formats:

Comma delimited format used in spreadsheet applications
http://www.bom.gov.au/fwo/IDS60801/IDS60801.94809.axf

JavaScript Object Notation format (JSON) in row-major order
http://www.bom.gov.au/fwo/IDS60801/IDS60801.94809.json